Time;durP1;ratioP1;P1;durP2;ratioP2;P2;SDS_P1;SDS_P2;PMS_P1;PMS_P2;Temp;Humidity;BMP_temperature;BMP_pressure;BME280_temperature;BME280_humidity;BME280_pressure;Samples;Min_cycle;Max_cycle;Signal;HPM_P1;HPM_P2
2021/05/31 00:01:03;;;;;;;3.80;2.67;;;;;;;9.29;49.90;96150.53;5050953;28;20544;-75
2021/05/31 00:03:29;;;;;;;2.70;2.30;;;;;;;9.32;48.49;96147.69;5052204;28;20220;-75
2021/05/31 00:05:54;;;;;;;5.67;2.33;;;;;;;9.33;48.50;96137.19;5051290;28;20268;-75
2021/05/31 00:08:20;;;;;;;3.37;2.57;;;;;;;9.30;48.38;96136.63;5084082;28;20181;-75
2021/05/31 00:10:45;;;;;;;4.87;2.50;;;;;;;9.27;48.57;96140.28;5050615;28;20192;-74
2021/05/31 00:13:10;;;;;;;4.10;2.20;;;;;;;9.45;47.94;96116.38;5052006;28;20316;-74
2021/05/31 00:15:36;;;;;;;4.57;2.23;;;;;;;9.43;47.55;96123.47;5049665;28;20270;-75
2021/05/31 00:18:01;;;;;;;3.87;1.90;;;;;;;9.36;48.09;96121.41;5034090;28;20220;-74
2021/05/31 00:20:26;;;;;;;3.90;2.60;;;;;;;9.34;47.87;96122.47;5050443;28;20267;-75
2021/05/31 00:22:52;;;;;;;2.90;2.23;;;;;;;9.54;47.20;96118.22;5050649;28;20264;-74
2021/05/31 00:25:17;;;;;;;2.87;2.33;;;;;;;9.58;47.10;96114.44;5032929;28;20217;-74
2021/05/31 00:27:43;;;;;;;2.63;2.40;;;;;;;9.39;47.56;96112.56;5050603;28;20246;-74
2021/05/31 00:30:10;;;;;;;2.30;2.00;;;;;;;9.32;47.52;96101.84;5051748;28;20219;-74
2021/05/31 00:32:35;;;;;;;2.67;2.27;;;;;;;9.26;48.09;96099.75;5050283;28;20197;-74
2021/05/31 00:35:01;;;;;;;3.53;1.93;;;;;;;9.32;47.92;96103.63;5049413;28;20296;-73
2021/05/31 00:37:26;;;;;;;3.07;2.10;;;;;;;9.27;48.10;96104.00;5050236;28;20593;-75
2021/05/31 00:39:52;;;;;;;3.87;2.07;;;;;;;9.29;47.60;96107.31;5050200;28;20201;-74
2021/05/31 00:42:17;;;;;;;6.53;2.53;;;;;;;9.14;48.24;96097.38;5050163;28;20613;-74
2021/05/31 00:44:42;;;;;;;2.57;2.30;;;;;;;9.25;47.84;96092.94;5051497;28;20284;-74
2021/05/31 00:47:08;;;;;;;4.43;2.40;;;;;;;9.07;48.61;96091.84;5049315;28;20189;-75
2021/05/31 00:49:38;;;;;;;2.73;2.00;;;;;;;9.14;48.15;96090.41;5050119;28;20181;-76
2021/05/31 00:52:08;;;;;;;3.27;2.23;;;;;;;9.12;48.29;96087.13;5049911;28;20259;-75
2021/05/31 00:54:33;;;;;;;3.93;2.30;;;;;;;9.23;47.57;96083.66;5050144;28;20197;-74
2021/05/31 00:56:59;;;;;;;4.40;2.03;;;;;;;9.12;47.79;96087.13;5032280;28;20339;-74
2021/05/31 00:59:24;;;;;;;2.70;2.00;;;;;;;9.07;48.07;96084.09;5050043;28;20328;-75
2021/05/31 01:01:50;;;;;;;3.40;2.23;;;;;;;8.98;48.35;96080.47;5033241;28;20260;-74
2021/05/31 01:04:18;;;;;;;5.97;3.43;;;;;;;8.93;48.37;96085.22;5049827;28;20194;-74
2021/05/31 01:06:51;;;;;;;3.70;2.17;;;;;;;8.87;48.77;96087.47;5049995;28;20174;-74
2021/05/31 01:09:28;;;;;;;3.37;2.00;;;;;;;8.91;48.66;96083.69;5049039;28;20189;-75
2021/05/31 01:12:14;;;;;;;3.17;2.10;;;;;;;8.93;48.71;96082.63;5049736;28;20181;-73
2021/05/31 01:15:01;;;;;;;4.77;2.30;;;;;;;8.91;48.62;96079.31;5049832;28;20236;-74
2021/05/31 01:17:32;;;;;;;6.13;2.23;;;;;;;8.90;48.61;96076.84;5049521;28;20664;-74
2021/05/31 01:20:09;;;;;;;2.47;2.03;;;;;;;8.78;49.12;96078.69;5050681;28;20675;-73
2021/05/31 01:22:36;;;;;;;3.37;1.90;;;;;;;8.68;49.62;96078.59;5055188;28;20177;-75
2021/05/31 01:25:22;;;;;;;5.13;2.20;;;;;;;8.55;50.21;96072.75;5053938;28;20202;-75
2021/05/31 01:27:56;;;;;;;4.30;2.43;;;;;;;8.45;50.33;96071.84;5032920;28;20190;-75
2021/05/31 01:30:23;;;;;;;3.10;2.03;;;;;;;8.53;50.07;96072.06;5053744;28;20589;-75
2021/05/31 01:32:51;;;;;;;3.77;2.07;;;;;;;8.40;50.19;96066.22;5053783;28;20272;-75
2021/05/31 01:35:27;;;;;;;2.97;2.47;;;;;;;8.33;50.77;96062.44;5053791;28;20213;-75
2021/05/31 01:37:54;;;;;;;3.83;2.33;;;;;;;8.25;51.34;96075.97;5052730;28;20200;-74
2021/05/31 01:40:20;;;;;;;3.27;2.00;;;;;;;8.19;51.04;96069.50;5053491;28;20192;-74
2021/05/31 01:42:46;;;;;;;3.53;2.30;;;;;;;8.18;51.21;96060.09;5053544;28;20268;-75
2021/05/31 01:45:12;;;;;;;4.33;2.27;;;;;;;8.20;50.74;96063.38;5036921;28;20261;-75
2021/05/31 01:47:37;;;;;;;4.43;2.37;;;;;;;8.26;50.71;96056.09;5052472;28;20197;-74
2021/05/31 01:50:04;;;;;;;3.40;2.40;;;;;;;8.53;50.32;96064.28;5053325;28;20665;-75
2021/05/31 01:52:30;;;;;;;2.93;2.00;;;;;;;8.41;50.72;96057.50;5054633;28;20681;-75
2021/05/31 01:54:56;;;;;;;2.50;2.17;;;;;;;8.40;50.68;96058.44;5053363;28;20206;-75
2021/05/31 01:57:23;;;;;;;4.00;2.20;;;;;;;8.26;51.21;96050.91;5052252;28;20186;-75
2021/05/31 01:59:49;;;;;;;2.27;2.03;;;;;;;8.28;51.14;96052.44;5036638;28;20178;-75
2021/05/31 02:02:15;;;;;;;3.50;2.50;;;;;;;8.21;50.89;96051.25;5053170;28;20236;-75
2021/05/31 02:04:40;;;;;;;3.70;2.30;;;;;;;8.17;51.14;96055.88;5053131;28;20186;-75
2021/05/31 02:07:06;;;;;;;2.20;1.80;;;;;;;8.26;51.15;96056.09;5053536;28;20184;-75
2021/05/31 02:09:31;;;;;;;3.80;2.07;;;;;;;8.18;51.46;96047.16;5054372;28;20571;-75
2021/05/31 02:12:04;;;;;;;3.07;2.77;;;;;;;8.29;51.06;96045.50;5052807;28;20273;-75
2021/05/31 02:14:37;;;;;;;4.13;2.30;;;;;;;8.16;51.35;96046.47;5054222;28;20206;-75
2021/05/31 02:17:24;;;;;;;3.83;2.70;;;;;;;8.11;51.54;96056.34;5052768;28;20220;-75
2021/05/31 02:19:52;;;;;;;4.40;2.57;;;;;;;8.23;51.50;96052.81;5052095;28;20194;-75
2021/05/31 02:22:18;;;;;;;4.20;2.27;;;;;;;8.23;51.45;96041.63;5036129;28;20174;-75
2021/05/31 02:24:43;;;;;;;4.63;3.33;;;;;;;8.19;51.60;96035.88;5052779;28;20600;-74
2021/05/31 02:27:08;;;;;;;3.50;2.37;;;;;;;8.16;51.62;96046.47;5052867;28;20221;-75
2021/05/31 02:29:34;;;;;;;1.90;1.80;;;;;;;8.08;51.53;96054.00;5052954;28;20182;-75
2021/05/31 02:31:59;;;;;;;4.20;2.30;;;;;;;8.01;51.84;96044.25;5052341;28;20245;-74
2021/05/31 02:34:28;;;;;;;4.40;2.40;;;;;;;7.86;52.27;96043.66;5053856;28;20327;-75
2021/05/31 02:36:55;;;;;;;2.53;1.93;;;;;;;7.84;52.64;96045.56;5035981;28;20177;-75
2021/05/31 02:39:20;;;;;;;3.90;2.50;;;;;;;7.74;52.90;96050.63;5051361;28;20178;-75
2021/05/31 02:41:46;;;;;;;4.03;2.23;;;;;;;7.77;52.68;96044.38;5085790;28;20670;-75
2021/05/31 02:44:12;;;;;;;3.00;2.20;;;;;;;7.81;52.88;96048.38;5053681;28;20201;-74
2021/05/31 02:46:37;;;;;;;3.20;2.40;;;;;;;7.74;52.75;96052.38;5052516;28;20170;-75
2021/05/31 02:49:03;;;;;;;3.77;2.13;;;;;;;7.75;52.87;96046.25;5052530;28;20173;-75
2021/05/31 02:51:28;;;;;;;4.30;2.40;;;;;;;7.75;52.85;96038.50;5051013;28;20189;-74
2021/05/31 02:53:54;;;;;;;4.47;2.47;;;;;;;7.71;52.93;96034.53;5035455;28;20695;-75
2021/05/31 02:56:19;;;;;;;3.27;2.20;;;;;;;7.71;53.19;96035.34;5053400;28;20216;-75
2021/05/31 02:58:44;;;;;;;2.70;2.20;;;;;;;7.66;53.43;96033.09;5052286;28;20185;-75
2021/05/31 03:01:10;;;;;;;4.80;2.17;;;;;;;7.72;52.97;96037.00;5050957;28;20221;-75
2021/05/31 03:03:35;;;;;;;4.90;2.70;;;;;;;7.73;53.11;96032.66;5052041;28;20189;-75
2021/05/31 03:06:00;;;;;;;3.40;2.50;;;;;;;7.72;53.14;96037.00;5052245;28;20170;-75
2021/05/31 03:08:26;;;;;;;2.50;2.23;;;;;;;7.77;52.99;96034.84;5053312;28;20183;-75
2021/05/31 03:10:51;;;;;;;5.07;2.50;;;;;;;7.69;52.84;96039.81;5052498;28;20186;-74
2021/05/31 03:13:17;;;;;;;3.83;2.40;;;;;;;7.65;53.40;96035.81;5050431;28;20216;-74
2021/05/31 03:15:42;;;;;;;2.30;2.10;;;;;;;7.63;53.98;96029.94;5035298;28;20625;-75
2021/05/31 03:18:08;;;;;;;4.00;2.70;;;;;;;7.64;53.70;96037.56;5051714;28;20173;-75
2021/05/31 03:20:33;;;;;;;2.50;2.30;;;;;;;7.75;53.48;96036.75;5052759;28;20236;-75
2021/05/31 03:23:01;;;;;;;3.03;2.13;;;;;;;7.65;53.98;96031.47;5051970;28;20199;-75
2021/05/31 03:25:26;;;;;;;4.10;2.40;;;;;;;7.54;54.21;96036.63;5051785;28;20170;-75
2021/05/31 03:27:53;;;;;;;3.50;2.10;;;;;;;7.56;54.15;96034.75;5051782;28;20731;-75
2021/05/31 03:30:19;;;;;;;3.67;2.47;;;;;;;7.48;54.38;96036.28;5035067;28;20280;-76
2021/05/31 03:32:44;;;;;;;2.43;2.10;;;;;;;7.59;54.21;96033.69;5050800;28;20193;-73
2021/05/31 03:35:11;;;;;;;2.57;2.07;;;;;;;7.57;54.31;96035.56;5084719;28;20205;-73
2021/05/31 03:37:37;;;;;;;2.60;2.40;;;;;;;7.47;54.38;96032.88;5051609;28;20182;-76
2021/05/31 03:40:03;;;;;;;4.43;2.70;;;;;;;7.52;54.09;96029.94;5051537;28;20180;-73
2021/05/31 03:42:29;;;;;;;2.63;2.00;;;;;;;7.59;53.83;96036.28;5050677;28;20553;-75
2021/05/31 03:44:54;;;;;;;2.80;2.47;;;;;;;7.51;54.61;96036.88;5050387;28;20205;-75
2021/05/31 03:47:19;;;;;;;3.40;2.00;;;;;;;7.58;54.09;96034.63;5051417;28;20182;-75
2021/05/31 03:49:45;;;;;;;3.63;2.30;;;;;;;7.55;54.10;96033.13;5052505;28;20174;-76
2021/05/31 03:52:10;;;;;;;3.03;2.50;;;;;;;7.79;53.54;96042.53;5052170;28;20197;-75
2021/05/31 03:54:35;;;;;;;3.60;1.87;;;;;;;8.93;51.21;96027.41;5049098;28;20229;-75
2021/05/31 03:57:01;;;;;;;2.53;2.23;;;;;;;10.50;46.91;96043.38;5051824;28;20649;-75
2021/05/31 03:59:26;;;;;;;3.83;2.23;;;;;;;11.92;42.92;96050.44;5051223;28;20224;-74
2021/05/31 04:01:52;;;;;;;2.97;2.13;;;;;;;12.66;40.84;96049.50;5052207;28;20279;-73
2021/05/31 04:04:19;;;;;;;3.27;2.30;;;;;;;13.63;38.48;96059.91;5051060;28;20194;-74
2021/05/31 04:07:21;;;;;;;3.47;2.10;;;;;;;14.78;36.05;96050.75;5050863;28;20178;-73
2021/05/31 04:12:13;;;;;;;3.90;2.40;;;;;;;15.34;34.51;96057.81;5042188;28;20189;-74
2021/05/31 04:14:39;;;;;;;2.38;1.98;;;;;;;15.95;33.46;96064.28;5033916;28;20193;-74
2021/05/31 04:17:04;;;;;;;2.28;1.85;;;;;;;16.16;32.59;96061.09;5050442;28;20184;-74
2021/05/31 04:19:29;;;;;;;3.22;1.95;;;;;;;17.09;30.67;96063.75;5034412;28;20293;-75
2021/05/31 04:21:55;;;;;;;3.40;2.30;;;;;;;16.02;32.98;96059.19;5049758;28;20193;-74
2021/05/31 04:24:21;;;;;;;2.35;2.13;;;;;;;16.06;32.77;96055.25;5050870;28;20201;-74
2021/05/31 04:26:47;;;;;;;3.75;2.10;;;;;;;16.80;31.74;96063.63;5050610;28;20697;-74
2021/05/31 04:29:15;;;;;;;3.88;1.77;;;;;;;17.80;30.33;96061.69;5050569;28;20800;-74
2021/05/31 04:31:40;;;;;;;2.78;2.17;;;;;;;18.23;29.24;96060.06;5050262;28;20665;-74
2021/05/31 04:34:08;;;;;;;2.90;2.13;;;;;;;19.80;26.31;96056.63;5049343;28;20198;-74
2021/05/31 04:36:34;;;;;;;2.88;2.10;;;;;;;19.43;26.89;96062.97;5050463;28;20288;-74
2021/05/31 04:39:02;;;;;;;4.13;2.10;;;;;;;19.51;26.94;96060.19;5050493;28;20181;-74
2021/05/31 04:41:27;;;;;;;5.13;2.20;;;;;;;20.62;26.06;96062.94;5050228;28;20729;-74
2021/05/31 04:43:52;;;;;;;3.03;1.80;;;;;;;22.43;22.86;96061.78;5049180;28;20205;-74
2021/05/31 04:46:18;;;;;;;3.80;1.85;;;;;;;21.13;24.25;96065.94;5072501;28;20170;-73
2021/05/31 04:48:43;;;;;;;3.17;2.17;;;;;;;21.87;22.88;96059.66;5053270;28;20235;-73
2021/05/31 04:51:08;;;;;;;3.30;2.30;;;;;;;21.31;24.45;96065.38;5049914;28;20677;-74
2021/05/31 04:53:34;;;;;;;2.47;1.63;;;;;;;20.68;25.54;96058.72;5050551;28;20248;-74
2021/05/31 04:56:06;;;;;;;2.53;2.10;;;;;;;22.01;23.03;96063.13;5049203;28;20689;-75
2021/05/31 04:58:31;;;;;;;3.95;2.50;;;;;;;21.89;23.40;96070.03;5034301;28;20236;-75
2021/05/31 05:00:57;;;;;;;2.72;2.13;;;;;;;21.47;24.03;96064.19;5050105;28;20646;-78
2021/05/31 05:03:22;;;;;;;3.58;1.88;;;;;;;23.12;21.68;96069.03;5051503;28;20280;-74
2021/05/31 05:05:48;;;;;;;3.38;2.30;;;;;;;21.76;23.92;96061.13;5043159;28;20186;-73
2021/05/31 05:08:14;;;;;;;3.70;2.10;;;;;;;24.12;20.98;96071.75;5049316;28;20629;-73
2021/05/31 05:10:40;;;;;;;2.85;2.25;;;;;;;23.20;21.95;96072.47;5050275;28;20189;-75
2021/05/31 05:13:06;;;;;;;2.58;2.33;;;;;;;23.62;21.50;96078.94;5045925;28;20828;-74
2021/05/31 05:15:32;;;;;;;5.20;2.58;;;;;;;22.64;22.46;96079.25;5047451;28;20237;-75
2021/05/31 05:17:57;;;;;;;2.55;2.30;;;;;;;22.75;22.63;96075.94;5048417;28;20180;-75
2021/05/31 05:20:25;;;;;;;2.58;1.98;;;;;;;22.51;23.26;96074.78;5030881;28;20653;-75
2021/05/31 05:22:50;;;;;;;3.17;2.33;;;;;;;22.95;21.69;96083.81;5049782;28;20169;-75
2021/05/31 05:25:16;;;;;;;2.22;2.03;;;;;;;22.75;23.13;96081.22;5049529;28;20177;-76
2021/05/31 05:27:43;;;;;;;2.20;2.00;;;;;;;23.34;21.47;96077.47;5033774;28;20680;-76
2021/05/31 05:30:10;;;;;;;4.38;2.05;;;;;;;23.32;22.40;96081.34;5032930;28;20184;-75
2021/05/31 05:32:36;;;;;;;3.55;1.90;;;;;;;23.07;22.24;96086.63;5048051;28;20319;-75
2021/05/31 05:35:16;;;;;;;3.25;1.95;;;;;;;22.83;22.44;96072.22;5049583;28;20205;-76
2021/05/31 05:37:54;;;;;;;3.13;2.33;;;;;;;23.58;21.73;96083.00;5048790;28;20284;-75
2021/05/31 05:43:31;;;;;;;3.40;2.33;;;;;;;24.29;21.20;96082.56;5046846;28;20263;-76
2021/05/31 05:48:40;;;;;;;3.05;2.25;;;;;;;24.23;20.82;96088.78;5045896;28;20204;-77
2021/05/31 05:51:07;;;;;;;4.05;2.55;;;;;;;24.65;20.56;96086.28;5050091;28;20181;-75
2021/05/31 05:53:34;;;;;;;6.38;2.67;;;;;;;24.82;20.54;96085.47;5049508;28;20193;-74
2021/05/31 05:55:59;;;;;;;3.65;2.40;;;;;;;23.11;23.10;96087.81;5050721;28;20293;-75
2021/05/31 05:58:29;;;;;;;2.55;2.35;;;;;;;25.23;20.38;96096.41;5047487;28;20235;-76
2021/05/31 06:00:57;;;;;;;4.03;2.40;;;;;;;24.69;21.08;96093.59;5048418;28;20242;-77
2021/05/31 06:03:23;;;;;;;2.97;2.67;;;;;;;23.05;22.96;96094.75;5049235;28;20284;-74
2021/05/31 06:05:49;;;;;;;3.63;2.40;;;;;;;24.46;21.49;96094.25;5051685;28;20308;-76
2021/05/31 06:08:14;;;;;;;3.33;2.55;;;;;;;23.97;21.68;96095.16;5050824;28;20266;-76
2021/05/31 06:10:39;;;;;;;3.08;2.30;;;;;;;25.11;20.54;96099.84;5051622;28;20668;-75
2021/05/31 06:13:05;;;;;;;3.30;2.58;;;;;;;24.74;21.07;96100.91;5053313;28;20205;-77
2021/05/31 06:15:30;;;;;;;2.72;2.33;;;;;;;24.69;21.20;96104.22;5036468;28;20755;-76
2021/05/31 06:17:55;;;;;;;2.88;2.28;;;;;;;24.68;21.22;96096.47;5052972;28;20278;-74
2021/05/31 06:20:21;;;;;;;2.88;2.47;;;;;;;24.25;21.51;96103.44;5052692;28;20185;-74
2021/05/31 06:22:46;;;;;;;2.50;2.28;;;;;;;25.03;21.05;96104.66;5036006;28;20182;-74
2021/05/31 06:25:12;;;;;;;4.80;2.22;;;;;;;24.12;21.22;96097.44;5053976;28;20181;-73
2021/05/31 06:27:37;;;;;;;3.92;2.40;;;;;;;23.54;22.47;96103.00;5053044;28;20173;-74
2021/05/31 06:30:04;;;;;;;2.65;2.45;;;;;;;24.33;21.58;96098.91;5051637;28;20178;-74
2021/05/31 06:32:30;;;;;;;2.42;2.22;;;;;;;24.35;21.62;96096.84;5052439;28;20243;-74
2021/05/31 06:34:56;;;;;;;2.88;2.10;;;;;;;25.38;20.57;96112.75;5053807;28;20256;-74
2021/05/31 06:37:21;;;;;;;2.63;2.40;;;;;;;24.33;22.12;96101.56;5052934;28;20581;-74
2021/05/31 06:39:46;;;;;;;3.10;2.45;;;;;;;24.70;20.98;96099.72;5053935;28;20185;-75
2021/05/31 06:42:12;;;;;;;3.72;2.40;;;;;;;25.16;21.29;96096.50;5052218;28;20200;-76
2021/05/31 06:44:37;;;;;;;3.92;2.38;;;;;;;24.66;21.29;96102.03;5053568;28;20554;-74
2021/05/31 06:47:03;;;;;;;3.15;2.30;;;;;;;23.66;23.40;96096.00;5052573;28;20255;-75
2021/05/31 06:49:28;;;;;;;2.33;2.13;;;;;;;24.32;22.28;96098.09;5052436;28;20634;-73
2021/05/31 06:51:53;;;;;;;4.50;2.47;;;;;;;23.65;22.84;96089.09;5051134;28;20220;-74
2021/05/31 06:54:19;;;;;;;8.13;2.50;;;;;;;23.39;24.13;96090.06;5053412;28;20670;-73
2021/05/31 06:56:44;;;;;;;4.20;2.13;;;;;;;23.74;22.81;96090.44;5035609;28;20215;-73
2021/05/31 06:59:09;;;;;;;2.28;2.08;;;;;;;22.08;24.71;96090.38;5053519;28;20178;-73
2021/05/31 07:01:35;;;;;;;3.45;2.28;;;;;;;22.35;24.74;96096.41;5051661;28;20174;-71
2021/05/31 07:04:00;;;;;;;3.25;2.30;;;;;;;20.63;25.74;96096.25;5052583;28;20197;-73
2021/05/31 07:06:25;;;;;;;3.58;1.90;;;;;;;21.96;24.31;96099.94;5053327;28;20169;-73
2021/05/31 07:08:51;;;;;;;4.90;2.33;;;;;;;21.66;24.25;96096.91;5052179;28;20177;-73
2021/05/31 07:11:18;;;;;;;2.40;2.00;;;;;;;19.90;27.00;96089.72;5053219;28;20227;-73
2021/05/31 07:13:45;;;;;;;4.47;2.13;;;;;;;20.76;25.94;96093.66;5033634;28;20202;-74
2021/05/31 07:16:13;;;;;;;5.05;1.80;;;;;;;20.26;26.20;96089.53;5051011;28;20212;-75
2021/05/31 07:18:39;;;;;;;3.88;1.98;;;;;;;20.73;24.78;96090.59;5034599;28;20178;-74
2021/05/31 07:21:04;;;;;;;3.28;2.00;;;;;;;21.30;24.72;96090.19;5044130;28;20185;-73
2021/05/31 07:23:30;;;;;;;6.05;2.30;;;;;;;21.77;24.80;96086.53;5047404;28;20221;-75
2021/05/31 07:25:55;;;;;;;3.83;2.00;;;;;;;21.15;24.45;96095.59;5084224;28;20205;-74
2021/05/31 07:28:20;;;;;;;2.28;1.73;;;;;;;20.89;24.40;96084.97;5040221;28;20277;-75
2021/05/31 07:30:46;;;;;;;2.50;2.03;;;;;;;20.20;24.94;96090.31;5049438;28;20193;-73
2021/05/31 07:33:13;;;;;;;1.95;1.70;;;;;;;20.61;24.29;96085.88;5042217;28;20332;-75
2021/05/31 07:35:39;;;;;;;4.28;2.10;;;;;;;19.16;26.39;96084.81;5043955;28;20213;-72
2021/05/31 07:38:05;;;;;;;2.30;1.80;;;;;;;19.92;24.73;96087.72;5050500;28;20548;-72
2021/05/31 07:40:30;;;;;;;3.80;1.95;;;;;;;20.52;24.56;96086.25;5051934;28;20183;-73
2021/05/31 07:42:56;;;;;;;2.30;1.45;;;;;;;21.19;24.28;96096.81;5044014;28;20186;-72
2021/05/31 07:45:21;;;;;;;2.35;1.90;;;;;;;20.54;24.86;96094.78;5039664;28;20649;-73
2021/05/31 07:47:47;;;;;;;5.43;1.95;;;;;;;21.25;23.67;96089.09;5042458;28;20193;-73
2021/05/31 07:50:14;;;;;;;4.88;1.88;;;;;;;20.12;25.34;96088.63;5035211;28;20179;-74
2021/05/31 07:52:39;;;;;;;3.13;1.70;;;;;;;19.55;26.16;96086.19;5033763;28;20668;-74
2021/05/31 07:55:07;;;;;;;3.33;1.90;;;;;;;18.92;26.82;96076.28;5044135;28;20211;-74
2021/05/31 07:57:33;;;;;;;2.42;2.13;;;;;;;19.06;26.66;96081.66;5041917;28;20188;-73
2021/05/31 07:59:58;;;;;;;4.50;1.73;;;;;;;19.11;26.34;96077.47;5037774;28;20182;-73
2021/05/31 08:02:24;;;;;;;3.58;2.22;;;;;;;18.72;27.03;96080.50;5077140;28;20182;-74
2021/05/31 08:04:49;;;;;;;3.58;2.30;;;;;;;18.64;27.67;96081.41;5039750;28;20202;-74
2021/05/31 08:07:15;;;;;;;3.53;2.15;;;;;;;18.33;27.97;96083.44;5038920;28;20186;-73
2021/05/31 08:09:40;;;;;;;3.35;1.90;;;;;;;18.68;28.96;96073.97;5013266;28;20198;-74
2021/05/31 08:12:07;;;;;;;5.03;2.20;;;;;;;18.28;28.22;96076.09;5046315;28;20182;-74
2021/05/31 08:14:32;;;;;;;3.95;2.00;;;;;;;17.12;29.31;96079.13;5038855;28;20662;-73
2021/05/31 08:16:58;;;;;;;3.17;2.45;;;;;;;17.43;29.99;96080.88;5035990;28;20266;-74
2021/05/31 08:19:26;;;;;;;2.90;2.03;;;;;;;17.21;29.96;96080.69;5049235;28;20213;-73
2021/05/31 08:21:52;;;;;;;2.33;2.00;;;;;;;17.92;29.94;96076.00;5023249;28;20190;-73
2021/05/31 08:24:19;;;;;;;4.65;2.03;;;;;;;18.05;29.21;96072.75;5017250;28;20194;-74
2021/05/31 08:26:45;;;;;;;3.65;2.13;;;;;;;17.76;30.13;96063.03;5038719;28;20699;-73
2021/05/31 08:29:10;;;;;;;4.07;2.38;;;;;;;17.67;30.17;96069.31;5043008;28;20201;-75
2021/05/31 08:31:36;;;;;;;3.17;1.90;;;;;;;17.21;31.48;96070.19;5049170;28;20205;-74
2021/05/31 08:34:01;;;;;;;6.68;2.58;;;;;;;17.37;31.52;96073.69;5020496;28;20225;-74
2021/05/31 08:36:26;;;;;;;3.38;2.20;;;;;;;17.73;31.09;96068.63;5041996;28;20209;-75
2021/05/31 08:38:56;;;;;;;6.50;2.05;;;;;;;17.24;30.86;96072.50;5036423;28;20189;-75
2021/05/31 08:41:22;;;;;;;4.97;2.10;;;;;;;16.38;31.70;96070.84;5045786;28;20257;-74
2021/05/31 08:43:47;;;;;;;5.77;2.10;;;;;;;16.58;33.14;96092.22;5037215;28;20210;-74
2021/05/31 08:46:13;;;;;;;3.13;2.03;;;;;;;16.32;31.90;96082.00;5033515;28;20262;-73
2021/05/31 08:48:38;;;;;;;6.70;2.50;;;;;;;16.58;32.21;96078.28;5038841;28;20230;-72
2021/05/31 08:51:04;;;;;;;2.33;2.13;;;;;;;16.80;30.83;96072.31;5027528;28;20267;-74
2021/05/31 08:53:29;;;;;;;5.10;2.15;;;;;;;16.33;30.43;96067.91;5041562;28;20201;-74
2021/05/31 08:55:54;;;;;;;2.20;2.00;;;;;;;15.85;31.68;96079.38;5045927;28;20213;-74
2021/05/31 08:58:20;;;;;;;4.47;2.27;;;;;;;15.83;30.77;96070.88;5044682;28;20186;-75
2021/05/31 09:00:45;;;;;;;6.30;2.43;;;;;;;15.84;30.56;96065.47;5037393;28;20665;-73
2021/05/31 09:03:11;;;;;;;3.97;2.20;;;;;;;15.93;31.16;96062.81;5040075;28;20255;-75
2021/05/31 09:05:38;;;;;;;2.70;2.07;;;;;;;16.47;33.47;96061.13;5036827;28;20174;-74
2021/05/31 09:08:04;;;;;;;4.87;2.53;;;;;;;16.53;30.38;96062.28;5031334;28;20261;-74
2021/05/31 09:10:43;;;;;;;3.50;2.37;;;;;;;16.23;31.08;96066.47;5043247;28;20174;-74
2021/05/31 09:13:10;;;;;;;2.80;2.13;;;;;;;16.82;32.03;96072.13;5031016;28;20689;-77
2021/05/31 09:15:35;;;;;;;7.37;1.97;;;;;;;17.17;30.56;96058.44;5034072;28;20221;-75
2021/05/31 09:18:01;;;;;;;4.25;1.95;;;;;;;16.98;30.55;96064.97;5016666;28;20641;-76
2021/05/31 09:20:27;;;;;;;2.75;2.00;;;;;;;17.00;29.65;96067.41;5033322;28;20186;-77
2021/05/31 09:22:55;;;;;;;3.35;1.80;;;;;;;15.86;30.38;96062.66;5045568;28;20181;-76
2021/05/31 09:25:30;;;;;;;3.27;1.90;;;;;;;16.13;30.71;96059.63;5081071;28;20180;-75
2021/05/31 09:27:56;;;;;;;2.95;2.20;;;;;;;16.17;30.57;96054.03;5043027;28;20175;-75
2021/05/31 09:30:39;;;;;;;4.93;2.67;;;;;;;16.07;30.90;96060.31;5043698;28;20178;-75
2021/05/31 09:33:13;;;;;;;2.90;2.20;;;;;;;15.51;29.78;96054.19;5041086;28;20194;-75
2021/05/31 09:35:40;;;;;;;11.80;5.00;;;;;;;15.57;31.50;96050.91;5044270;28;20288;-77
2021/05/31 09:38:05;;;;;;;3.93;2.07;;;;;;;16.00;31.28;96054.13;5044290;28;20186;-76
2021/05/31 09:40:31;;;;;;;3.13;1.97;;;;;;;16.67;31.00;96043.16;5030089;28;20175;-75
2021/05/31 09:42:59;;;;;;;3.27;1.90;;;;;;;16.63;32.06;96063.69;5050044;28;20204;-75
2021/05/31 09:45:25;;;;;;;2.10;1.73;;;;;;;15.96;30.51;96044.97;5044259;28;20171;-76
2021/05/31 09:47:50;;;;;;;1.93;1.70;;;;;;;16.65;32.24;96043.34;5044027;28;20655;-76
2021/05/31 09:50:28;;;;;;;6.22;2.30;;;;;;;16.57;31.18;96053.88;5047901;28;20257;-76
2021/05/31 09:53:23;;;;;;;2.90;2.00;;;;;;;16.21;30.71;96056.16;5026955;28;20193;-75
2021/05/31 09:55:49;;;;;;;2.73;2.27;;;;;;;15.98;30.78;96071.78;5038953;28;20756;-76
2021/05/31 09:58:16;;;;;;;5.23;2.03;;;;;;;15.73;31.00;96054.53;5047909;28;20188;-76
2021/05/31 10:00:48;;;;;;;5.57;2.13;;;;;;;16.56;30.08;96059.28;5014319;28;20740;-76
2021/05/31 10:03:22;;;;;;;4.00;1.93;;;;;;;17.19;29.51;96048.56;5020960;28;20198;-77
2021/05/31 10:09:00;;;;;;;3.70;2.30;;;;;;;16.56;31.66;96054.06;5032171;28;20190;-76
2021/05/31 10:11:02;;;;;;;2.35;1.80;;;;;;;16.44;31.47;96045.75;5040047;28;20658;-76
2021/05/31 10:13:28;;;;;;;3.10;2.42;;;;;;;16.42;30.86;96063.44;5001134;28;20211;-76
2021/05/31 10:15:53;;;;;;;2.15;1.95;;;;;;;16.94;31.45;96057.59;5019145;28;20214;-77
2021/05/31 10:18:19;;;;;;;2.20;2.00;;;;;;;16.88;29.97;96053.06;5025657;28;20178;-75
2021/05/31 10:20:46;;;;;;;2.97;2.00;;;;;;;17.29;28.98;96045.69;5013133;28;20194;-76
2021/05/31 10:23:13;;;;;;;4.30;2.13;;;;;;;17.37;30.19;96043.00;5019974;28;20276;-75
2021/05/31 10:25:43;;;;;;;4.07;2.13;;;;;;;16.67;29.65;96041.34;5028759;28;20203;-76
2021/05/31 10:28:16;;;;;;;2.50;2.03;;;;;;;16.74;31.51;96043.31;5016204;28;20198;-77
2021/05/31 10:30:43;;;;;;;3.63;2.20;;;;;;;17.26;32.26;96033.75;5018751;28;20182;-75
2021/05/31 10:33:12;;;;;;;2.70;2.33;;;;;;;17.87;29.80;96038.94;5038724;28;20206;-76
2021/05/31 10:35:38;;;;;;;3.25;2.30;;;;;;;17.89;30.68;96039.59;5074657;28;20206;-76
2021/05/31 10:38:10;;;;;;;6.78;2.33;;;;;;;17.44;30.74;96051.00;5046811;28;20231;-76
2021/05/31 10:40:37;;;;;;;7.43;2.83;;;;;;;17.08;30.61;96050.81;5037006;28;20177;-75
2021/05/31 10:43:07;;;;;;;5.65;2.40;;;;;;;16.64;30.93;96039.09;5046263;28;20216;-75
2021/05/31 10:45:33;;;;;;;3.10;2.60;;;;;;;16.99;31.00;96039.56;5042852;28;20178;-75
2021/05/31 10:48:10;;;;;;;2.72;2.22;;;;;;;17.17;31.53;96036.63;5061175;28;20182;-75
2021/05/31 10:50:42;;;;;;;2.63;2.40;;;;;;;16.88;31.61;96038.16;5049407;28;20300;-76
2021/05/31 10:55:58;;;;;;;3.13;2.55;;;;;;;17.70;29.89;96029.59;5039942;28;20206;-77
2021/05/31 10:58:27;;;;;;;3.85;2.60;;;;;;;17.86;30.70;96031.25;5047046;28;20184;-76
2021/05/31 11:00:55;;;;;;;3.30;2.42;;;;;;;17.87;31.00;96033.69;5044692;28;20545;-76
2021/05/31 11:03:21;;;;;;;3.47;2.60;;;;;;;17.78;31.23;96032.16;5035888;28;20592;-76
2021/05/31 11:05:46;;;;;;;5.05;2.30;;;;;;;17.55;31.11;96037.44;5037711;28;20178;-76
2021/05/31 11:08:23;;;;;;;3.38;2.00;;;;;;;18.02;32.42;96037.16;5047289;28;20186;-76
2021/05/31 11:10:54;;;;;;;2.85;1.92;;;;;;;18.53;29.53;96046.84;5044844;28;20182;-76
2021/05/31 11:13:19;;;;;;;3.88;2.13;;;;;;;18.40;29.10;96037.81;5044486;28;20310;-75
2021/05/31 11:15:44;;;;;;;2.22;2.00;;;;;;;18.15;28.61;96030.44;5042456;28;20296;-74
2021/05/31 11:18:21;;;;;;;2.55;2.03;;;;;;;18.16;28.70;96032.88;5038721;28;20251;-76
2021/05/31 11:20:46;;;;;;;2.75;2.30;;;;;;;17.76;29.94;96037.59;5044946;28;20178;-76
2021/05/31 11:23:12;;;;;;;4.07;2.30;;;;;;;17.65;30.55;96034.53;5044934;28;20264;-77
2021/05/31 11:25:37;;;;;;;3.22;2.10;;;;;;;18.09;30.01;96037.22;5038304;28;20174;-76
2021/05/31 11:28:04;;;;;;;2.35;2.10;;;;;;;18.59;28.71;96038.25;5045692;28;20178;-76
2021/05/31 11:30:34;;;;;;;5.35;2.60;;;;;;;17.87;28.82;96049.47;5028412;28;20186;-75
2021/05/31 11:33:03;;;;;;;4.28;2.03;;;;;;;18.05;29.43;96038.59;5043180;28;20186;-75
2021/05/31 11:35:29;;;;;;;4.47;2.30;;;;;;;18.47;30.10;96031.84;5018134;28;20198;-74
2021/05/31 11:37:55;;;;;;;5.15;2.22;;;;;;;18.74;30.04;96031.16;5058376;28;20308;-74
2021/05/31 11:40:31;;;;;;;3.47;2.25;;;;;;;18.78;29.74;96037.66;5041008;28;20186;-74
2021/05/31 11:43:02;;;;;;;2.28;2.05;;;;;;;19.17;29.33;96025.88;5040767;28;20214;-74
2021/05/31 11:45:32;;;;;;;2.95;2.60;;;;;;;19.20;28.37;96026.34;5037362;28;20175;-74
2021/05/31 11:48:00;;;;;;;2.65;2.10;;;;;;;19.34;29.05;96024.59;5073945;28;20184;-72
2021/05/31 11:50:27;;;;;;;5.07;1.83;;;;;;;19.60;27.25;96031.13;5052485;28;20659;-72